Time;durP1;ratioP1;P1;durP2;ratioP2;P2;SDS_P1;SDS_P2;PMS_P1;PMS_P2;Temp;Humidity;BMP_temperature;BMP_pressure;BME280_temperature;BME280_humidity;BME280_pressure;Samples;Min_cycle;Max_cycle;Signal;HPM_P1;HPM_P2
2022/04/25 00:01:47;;;;;;;1.50;1.30;;;;;;;;;;7401543;19;20141;-82
2022/04/25 00:04:13;;;;;;;1.50;1.40;;;;;;;;;;7393627;19;20645;-86
2022/04/25 00:06:41;;;;;;;1.53;1.43;;;;;;;;;;7400072;19;20133;-84
2022/04/25 00:09:07;;;;;;;1.80;1.70;;;;;;;;;;7395488;19;20137;-82
2022/04/25 00:11:33;;;;;;;1.60;1.50;;;;;;;;;;7397380;19;20137;-81
2022/04/25 00:14:00;;;;;;;1.63;1.50;;;;;;;;;;7394971;19;20165;-84
2022/04/25 00:16:26;;;;;;;1.57;1.47;;;;;;;;;;7398748;19;20141;-82
2022/04/25 00:18:53;;;;;;;1.60;1.50;;;;;;;;;;7399957;19;20158;-88
2022/04/25 00:21:19;;;;;;;1.90;1.70;;;;;;;;;;7398353;19;20612;-88
2022/04/25 00:23:46;;;;;;;1.53;1.43;;;;;;;;;;7399143;19;20153;-83
2022/04/25 00:26:13;;;;;;;1.50;1.40;;;;;;;;;;7398581;19;20508;-82
2022/04/25 00:28:39;;;;;;;1.73;1.63;;;;;;;;;;7399855;19;20125;-82
2022/04/25 00:31:05;;;;;;;3.43;1.80;;;;;;;;;;7397385;19;20133;-83
2022/04/25 00:33:32;;;;;;;2.77;2.10;;;;;;;;;;7396703;19;20470;-84
2022/04/25 00:35:58;;;;;;;2.50;2.30;;;;;;;;;;7395666;19;20200;-82
2022/04/25 00:38:24;;;;;;;4.07;2.10;;;;;;;;;;7395933;19;20149;-82
2022/04/25 00:40:51;;;;;;;2.50;2.30;;;;;;;;;;7399839;19;20136;-82
2022/04/25 00:43:18;;;;;;;2.13;2.00;;;;;;;;;;7397742;19;20150;-81
2022/04/25 00:45:44;;;;;;;2.40;2.20;;;;;;;;;;7394543;19;20171;-82
2022/04/25 00:48:10;;;;;;;2.37;2.00;;;;;;;;;;7399853;19;20133;-82
2022/04/25 00:50:39;;;;;;;2.17;1.93;;;;;;;;;;7401080;19;20117;-82
2022/04/25 00:53:08;;;;;;;1.90;1.70;;;;;;;;;;7399058;19;20157;-82
2022/04/25 00:55:36;;;;;;;2.33;2.23;;;;;;;;;;7395940;19;20157;-82
2022/04/25 00:58:04;;;;;;;2.50;2.30;;;;;;;;;;7403112;19;20142;-83
2022/04/25 01:00:33;;;;;;;2.60;2.40;;;;;;;;;;7402016;19;20147;-83
2022/04/25 01:03:01;;;;;;;2.43;2.17;;;;;;;;;;7400249;19;20162;-82
2022/04/25 01:05:29;;;;;;;2.20;2.00;;;;;;;;;;7399974;19;20161;-82
2022/04/25 01:07:56;;;;;;;3.50;2.30;;;;;;;;;;7400653;19;20592;-81
2022/04/25 01:10:23;;;;;;;2.03;1.83;;;;;;;;;;7395082;19;20144;-85
2022/04/25 01:12:50;;;;;;;2.60;2.30;;;;;;;;;;7401774;19;20502;-84
2022/04/25 01:15:19;;;;;;;2.43;2.23;;;;;;;;;;7400569;19;20157;-84
2022/04/25 01:17:45;;;;;;;2.80;2.37;;;;;;;;;;7395406;19;20170;-81
2022/04/25 01:20:12;;;;;;;2.80;2.33;;;;;;;;;;7395452;19;20231;-82
2022/04/25 01:22:44;;;;;;;3.13;2.63;;;;;;;;;;7395586;19;20125;-82
2022/04/25 01:28:07;;;;;;;2.40;2.30;;;;;;;;;;7412965;19;20277;-84
2022/04/25 01:34:00;;;;;;;2.17;2.07;;;;;;;;;;7419937;19;20195;-84
2022/04/25 01:36:45;;;;;;;2.37;2.17;;;;;;;;;;7417293;19;20113;-84
2022/04/25 01:39:47;;;;;;;2.27;2.10;;;;;;;;;;7414424;19;20135;-82
2022/04/25 01:42:14;;;;;;;2.33;1.87;;;;;;;;;;7406403;19;20149;-86
2022/04/25 01:44:44;;;;;;;2.27;2.17;;;;;;;;;;7404050;19;20492;-82
